sensor_id;sensor_type;location;lat;lon;timestamp;P1;durP1;ratioP1;P2;durP2;ratioP2
32946;SDS011;54465;51.230;22.504;2023-02-27T00:01:13;4.63;;;2.28;;
32946;SDS011;54465;51.230;22.504;2023-02-27T00:06:13;5.18;;;2.30;;
32946;SDS011;54465;51.230;22.504;2023-02-27T00:11:13;3.45;;;1.00;;
32946;SDS011;54465;51.230;22.504;2023-02-27T00:16:14;2.65;;;1.35;;
32946;SDS011;54465;51.230;22.504;2023-02-27T00:21:14;4.63;;;1.90;;
32946;SDS011;54465;51.230;22.504;2023-02-27T00:26:15;4.75;;;1.50;;
32946;SDS011;54465;51.230;22.504;2023-02-27T00:31:16;2.10;;;1.25;;
32946;SDS011;54465;51.230;22.504;2023-02-27T00:36:16;3.63;;;1.42;;
32946;SDS011;54465;51.230;22.504;2023-02-27T00:41:17;4.47;;;1.38;;
32946;SDS011;54465;51.230;22.504;2023-02-27T00:46:17;5.47;;;1.70;;
32946;SDS011;54465;51.230;22.504;2023-02-27T00:51:18;4.90;;;1.55;;
32946;SDS011;54465;51.230;22.504;2023-02-27T00:56:19;3.25;;;1.58;;
32946;SDS011;54465;51.230;22.504;2023-02-27T01:01:19;4.15;;;1.10;;
32946;SDS011;54465;51.230;22.504;2023-02-27T01:06:20;1.83;;;1.00;;
32946;SDS011;54465;51.230;22.504;2023-02-27T01:11:21;3.03;;;1.23;;
32946;SDS011;54465;51.230;22.504;2023-02-27T01:16:22;2.50;;;1.13;;
32946;SDS011;54465;51.230;22.504;2023-02-27T01:21:22;1.55;;;0.80;;
32946;SDS011;54465;51.230;22.504;2023-02-27T01:26:23;1.67;;;0.98;;
32946;SDS011;54465;51.230;22.504;2023-02-27T01:31:24;3.70;;;1.23;;
32946;SDS011;54465;51.230;22.504;2023-02-27T01:36:25;1.92;;;0.63;;
32946;SDS011;54465;51.230;22.504;2023-02-27T01:41:25;2.42;;;0.60;;
32946;SDS011;54465;51.230;22.504;2023-02-27T01:46:28;2.00;;;0.68;;
32946;SDS011;54465;51.230;22.504;2023-02-27T01:51:31;1.80;;;0.90;;
32946;SDS011;54465;51.230;22.504;2023-02-27T01:56:34;1.30;;;0.73;;
32946;SDS011;54465;51.230;22.504;2023-02-27T02:01:35;2.25;;;0.85;;
32946;SDS011;54465;51.230;22.504;2023-02-27T02:06:36;3.60;;;0.80;;
32946;SDS011;54465;51.230;22.504;2023-02-27T02:11:39;1.50;;;0.63;;
32946;SDS011;54465;51.230;22.504;2023-02-27T02:27:34;2.75;;;1.13;;
32946;SDS011;54465;51.230;22.504;2023-02-27T02:43:23;4.60;;;0.90;;
32946;SDS011;54465;51.230;22.504;2023-02-27T02:53:44;1.30;;;0.65;;
32946;SDS011;54465;51.230;22.504;2023-02-27T03:04:09;6.28;;;1.08;;
32946;SDS011;54465;51.230;22.504;2023-02-27T03:09:17;2.08;;;1.08;;
32946;SDS011;54465;51.230;22.504;2023-02-27T03:14:31;1.67;;;0.80;;
32946;SDS011;54465;51.230;22.504;2023-02-27T03:19:42;4.25;;;1.50;;
32946;SDS011;54465;51.230;22.504;2023-02-27T03:24:47;2.08;;;1.20;;
32946;SDS011;54465;51.230;22.504;2023-02-27T03:34:55;2.17;;;1.10;;
32946;SDS011;54465;51.230;22.504;2023-02-27T03:39:59;2.58;;;1.10;;
32946;SDS011;54465;51.230;22.504;2023-02-27T03:50:13;2.40;;;0.95;;
32946;SDS011;54465;51.230;22.504;2023-02-27T03:55:21;3.58;;;1.40;;
32946;SDS011;54465;51.230;22.504;2023-02-27T04:00:24;2.92;;;1.63;;
32946;SDS011;54465;51.230;22.504;2023-02-27T04:05:26;3.63;;;0.80;;
32946;SDS011;54465;51.230;22.504;2023-02-27T04:26:26;4.13;;;1.10;;
32946;SDS011;54465;51.230;22.504;2023-02-27T04:36:40;1.25;;;0.60;;
32946;SDS011;54465;51.230;22.504;2023-02-27T04:41:49;2.40;;;0.98;;
32946;SDS011;54465;51.230;22.504;2023-02-27T04:46:53;3.47;;;0.77;;
32946;SDS011;54465;51.230;22.504;2023-02-27T04:52:03;1.02;;;0.55;;
32946;SDS011;54465;51.230;22.504;2023-02-27T04:57:07;4.85;;;0.90;;
32946;SDS011;54465;51.230;22.504;2023-02-27T05:07:30;1.83;;;0.77;;
32946;SDS011;54465;51.230;22.504;2023-02-27T05:12:37;2.22;;;0.80;;
32946;SDS011;54465;51.230;22.504;2023-02-27T05:17:48;3.23;;;1.00;;
32946;SDS011;54465;51.230;22.504;2023-02-27T05:22:57;2.78;;;1.10;;
32946;SDS011;54465;51.230;22.504;2023-02-27T05:28:23;2.03;;;1.00;;
32946;SDS011;54465;51.230;22.504;2023-02-27T05:33:31;1.88;;;1.20;;
32946;SDS011;54465;51.230;22.504;2023-02-27T05:38:36;2.88;;;1.45;;
32946;SDS011;54465;51.230;22.504;2023-02-27T05:43:43;2.53;;;1.52;;
32946;SDS011;54465;51.230;22.504;2023-02-27T05:48:48;2.88;;;2.00;;
32946;SDS011;54465;51.230;22.504;2023-02-27T05:54:28;4.18;;;2.38;;
32946;SDS011;54465;51.230;22.504;2023-02-27T05:59:27;3.47;;;2.00;;
32946;SDS011;54465;51.230;22.504;2023-02-27T06:04:31;4.88;;;2.08;;
32946;SDS011;54465;51.230;22.504;2023-02-27T06:09:32;3.78;;;1.88;;
32946;SDS011;54465;51.230;22.504;2023-02-27T06:14:33;3.80;;;1.58;;
32946;SDS011;54465;51.230;22.504;2023-02-27T06:19:33;4.88;;;1.58;;
32946;SDS011;54465;51.230;22.504;2023-02-27T06:24:34;4.25;;;1.55;;
32946;SDS011;54465;51.230;22.504;2023-02-27T06:29:35;6.13;;;3.42;;
32946;SDS011;54465;51.230;22.504;2023-02-27T06:34:35;7.45;;;3.85;;
32946;SDS011;54465;51.230;22.504;2023-02-27T06:39:36;8.00;;;4.55;;
32946;SDS011;54465;51.230;22.504;2023-02-27T06:44:36;7.97;;;4.72;;
32946;SDS011;54465;51.230;22.504;2023-02-27T06:49:37;8.48;;;3.88;;
32946;SDS011;54465;51.230;22.504;2023-02-27T06:54:37;7.68;;;3.20;;
32946;SDS011;54465;51.230;22.504;2023-02-27T06:59:38;7.05;;;2.90;;
32946;SDS011;54465;51.230;22.504;2023-02-27T07:04:38;6.65;;;3.33;;
32946;SDS011;54465;51.230;22.504;2023-02-27T07:09:39;6.03;;;2.10;;
32946;SDS011;54465;51.230;22.504;2023-02-27T07:14:39;5.13;;;2.92;;
32946;SDS011;54465;51.230;22.504;2023-02-27T07:19:40;7.00;;;2.55;;
32946;SDS011;54465;51.230;22.504;2023-02-27T07:24:40;2.78;;;1.52;;
32946;SDS011;54465;51.230;22.504;2023-02-27T07:29:41;3.30;;;1.77;;
32946;SDS011;54465;51.230;22.504;2023-02-27T07:34:42;4.53;;;2.00;;
32946;SDS011;54465;51.230;22.504;2023-02-27T07:39:42;3.65;;;2.08;;
32946;SDS011;54465;51.230;22.504;2023-02-27T07:44:44;2.85;;;1.40;;
32946;SDS011;54465;51.230;22.504;2023-02-27T07:49:44;5.90;;;2.00;;
32946;SDS011;54465;51.230;22.504;2023-02-27T07:54:45;3.85;;;1.90;;
32946;SDS011;54465;51.230;22.504;2023-02-27T07:59:45;5.38;;;2.20;;
32946;SDS011;54465;51.230;22.504;2023-02-27T08:04:47;4.13;;;1.40;;
32946;SDS011;54465;51.230;22.504;2023-02-27T08:09:47;4.85;;;2.15;;
32946;SDS011;54465;51.230;22.504;2023-02-27T08:14:48;2.90;;;1.30;;
32946;SDS011;54465;51.230;22.504;2023-02-27T08:19:48;3.40;;;1.00;;
32946;SDS011;54465;51.230;22.504;2023-02-27T08:24:49;2.65;;;1.30;;
32946;SDS011;54465;51.230;22.504;2023-02-27T08:29:49;2.00;;;1.20;;
32946;SDS011;54465;51.230;22.504;2023-02-27T08:34:50;2.40;;;1.30;;
32946;SDS011;54465;51.230;22.504;2023-02-27T08:39:50;2.53;;;1.08;;
32946;SDS011;54465;51.230;22.504;2023-02-27T08:44:51;1.45;;;0.95;;
32946;SDS011;54465;51.230;22.504;2023-02-27T08:49:51;3.30;;;1.52;;
32946;SDS011;54465;51.230;22.504;2023-02-27T08:54:52;3.40;;;1.15;;
32946;SDS011;54465;51.230;22.504;2023-02-27T08:59:52;2.45;;;0.80;;
32946;SDS011;54465;51.230;22.504;2023-02-27T09:04:53;1.90;;;0.82;;
32946;SDS011;54465;51.230;22.504;2023-02-27T09:09:54;1.35;;;0.77;;
32946;SDS011;54465;51.230;22.504;2023-02-27T09:14:54;2.97;;;1.10;;
32946;SDS011;54465;51.230;22.504;2023-02-27T09:19:55;3.58;;;1.05;;
32946;SDS011;54465;51.230;22.504;2023-02-27T09:24:55;3.80;;;1.45;;
32946;SDS011;54465;51.230;22.504;2023-02-27T09:29:56;6.72;;;1.60;;
32946;SDS011;54465;51.230;22.504;2023-02-27T09:34:56;5.00;;;1.55;;
32946;SDS011;54465;51.230;22.504;2023-02-27T09:39:57;2.75;;;1.33;;
32946;SDS011;54465;51.230;22.504;2023-02-27T09:45:00;3.40;;;1.90;;
32946;SDS011;54465;51.230;22.504;2023-02-27T09:55:37;4.50;;;1.70;;
32946;SDS011;54465;51.230;22.504;2023-02-27T10:00:47;2.10;;;1.30;;
32946;SDS011;54465;51.230;22.504;2023-02-27T17:48:49;4.78;;;2.65;;
32946;SDS011;54465;51.230;22.504;2023-02-27T17:53:50;3.88;;;2.40;;
32946;SDS011;54465;51.230;22.504;2023-02-27T17:58:50;5.43;;;2.40;;
32946;SDS011;54465;51.230;22.504;2023-02-27T18:03:51;6.25;;;2.80;;
32946;SDS011;54465;51.230;22.504;2023-02-27T18:08:53;5.43;;;3.20;;
32946;SDS011;54465;51.230;22.504;2023-02-27T18:13:54;5.93;;;3.47;;
32946;SDS011;54465;51.230;22.504;2023-02-27T18:18:55;4.75;;;3.22;;
32946;SDS011;54465;51.230;22.504;2023-02-27T18:23:56;5.40;;;3.55;;
32946;SDS011;54465;51.230;22.504;2023-02-27T18:29:01;6.03;;;3.00;;
32946;SDS011;54465;51.230;22.504;2023-02-27T18:34:05;4.63;;;2.65;;
32946;SDS011;54465;51.230;22.504;2023-02-27T18:39:06;5.93;;;3.05;;
32946;SDS011;54465;51.230;22.504;2023-02-27T18:44:07;6.18;;;2.92;;
32946;SDS011;54465;51.230;22.504;2023-02-27T18:49:09;7.50;;;2.92;;
32946;SDS011;54465;51.230;22.504;2023-02-27T18:54:13;5.38;;;2.88;;
32946;SDS011;54465;51.230;22.504;2023-02-27T18:59:14;5.13;;;2.50;;
32946;SDS011;54465;51.230;22.504;2023-02-27T19:04:14;4.25;;;2.80;;
32946;SDS011;54465;51.230;22.504;2023-02-27T19:09:14;4.28;;;2.92;;
32946;SDS011;54465;51.230;22.504;2023-02-27T19:14:15;3.42;;;2.40;;
32946;SDS011;54465;51.230;22.504;2023-02-27T19:19:16;2.92;;;2.38;;
32946;SDS011;54465;51.230;22.504;2023-02-27T19:24:17;4.03;;;2.60;;
32946;SDS011;54465;51.230;22.504;2023-02-27T19:29:18;4.65;;;2.50;;
32946;SDS011;54465;51.230;22.504;2023-02-27T19:34:19;4.28;;;2.67;;
32946;SDS011;54465;51.230;22.504;2023-02-27T19:39:19;6.22;;;3.05;;
32946;SDS011;54465;51.230;22.504;2023-02-27T19:44:22;4.53;;;2.47;;
32946;SDS011;54465;51.230;22.504;2023-02-27T19:49:22;5.38;;;2.95;;
32946;SDS011;54465;51.230;22.504;2023-02-27T19:54:23;5.35;;;2.97;;
32946;SDS011;54465;51.230;22.504;2023-02-27T19:59:23;5.90;;;3.08;;
32946;SDS011;54465;51.230;22.504;2023-02-27T20:04:24;6.97;;;4.05;;
32946;SDS011;54465;51.230;22.504;2023-02-27T20:09:24;7.78;;;4.35;;
32946;SDS011;54465;51.230;22.504;2023-02-27T20:14:26;10.15;;;4.53;;
32946;SDS011;54465;51.230;22.504;2023-02-27T20:19:27;8.25;;;3.92;;
32946;SDS011;54465;51.230;22.504;2023-02-27T20:24:27;8.40;;;4.38;;
32946;SDS011;54465;51.230;22.504;2023-02-27T20:29:28;9.93;;;4.82;;
32946;SDS011;54465;51.230;22.504;2023-02-27T20:34:28;10.23;;;4.63;;
32946;SDS011;54465;51.230;22.504;2023-02-27T20:39:29;8.23;;;4.45;;
32946;SDS011;54465;51.230;22.504;2023-02-27T20:44:30;8.90;;;4.43;;
32946;SDS011;54465;51.230;22.504;2023-02-27T20:49:31;11.68;;;4.68;;
32946;SDS011;54465;51.230;22.504;2023-02-27T20:54:31;8.02;;;4.82;;
32946;SDS011;54465;51.230;22.504;2023-02-27T20:59:32;12.07;;;5.38;;
32946;SDS011;54465;51.230;22.504;2023-02-27T21:04:32;10.70;;;5.47;;
32946;SDS011;54465;51.230;22.504;2023-02-27T21:09:41;13.02;;;6.10;;
32946;SDS011;54465;51.230;22.504;2023-02-27T21:14:42;14.30;;;6.95;;
32946;SDS011;54465;51.230;22.504;2023-02-27T21:19:43;17.95;;;7.82;;
32946;SDS011;54465;51.230;22.504;2023-02-27T21:24:44;16.90;;;8.73;;
32946;SDS011;54465;51.230;22.504;2023-02-27T21:29:46;21.30;;;8.05;;
32946;SDS011;54465;51.230;22.504;2023-02-27T21:34:47;16.48;;;8.88;;
32946;SDS011;54465;51.230;22.504;2023-02-27T21:39:48;19.40;;;8.80;;
32946;SDS011;54465;51.230;22.504;2023-02-27T21:44:53;15.45;;;7.45;;
32946;SDS011;54465;51.230;22.504;2023-02-27T21:49:53;7.68;;;4.32;;
32946;SDS011;54465;51.230;22.504;2023-02-27T21:54:54;2.67;;;2.22;;
32946;SDS011;54465;51.230;22.504;2023-02-27T21:59:55;3.30;;;2.20;;
32946;SDS011;54465;51.230;22.504;2023-02-27T22:04:55;4.07;;;2.03;;
32946;SDS011;54465;51.230;22.504;2023-02-27T22:09:56;3.33;;;2.25;;
32946;SDS011;54465;51.230;22.504;2023-02-27T22:14:57;3.00;;;2.28;;
32946;SDS011;54465;51.230;22.504;2023-02-27T22:19:58;4.07;;;2.38;;
32946;SDS011;54465;51.230;22.504;2023-02-27T22:24:58;5.15;;;2.05;;
32946;SDS011;54465;51.230;22.504;2023-02-27T22:29:59;4.00;;;2.20;;
32946;SDS011;54465;51.230;22.504;2023-02-27T22:34:59;2.28;;;1.98;;
32946;SDS011;54465;51.230;22.504;2023-02-27T22:40:00;3.75;;;2.28;;
32946;SDS011;54465;51.230;22.504;2023-02-27T22:45:00;4.45;;;2.15;;
32946;SDS011;54465;51.230;22.504;2023-02-27T22:50:01;3.42;;;1.85;;
32946;SDS011;54465;51.230;22.504;2023-02-27T22:55:03;3.33;;;1.83;;
32946;SDS011;54465;51.230;22.504;2023-02-27T23:00:04;3.13;;;2.10;;
32946;SDS011;54465;51.230;22.504;2023-02-27T23:05:05;4.43;;;1.83;;
32946;SDS011;54465;51.230;22.504;2023-02-27T23:10:06;5.07;;;2.03;;
32946;SDS011;54465;51.230;22.504;2023-02-27T23:15:09;4.38;;;2.05;;
32946;SDS011;54465;51.230;22.504;2023-02-27T23:20:09;3.50;;;2.45;;
32946;SDS011;54465;51.230;22.504;2023-02-27T23:25:10;5.25;;;2.10;;
32946;SDS011;54465;51.230;22.504;2023-02-27T23:30:11;4.47;;;2.47;;
32946;SDS011;54465;51.230;22.504;2023-02-27T23:35:12;3.80;;;2.70;;
32946;SDS011;54465;51.230;22.504;2023-02-27T23:40:14;4.13;;;2.88;;
32946;SDS011;54465;51.230;22.504;2023-02-27T23:45:14;4.32;;;2.80;;
32946;SDS011;54465;51.230;22.504;2023-02-27T23:50:28;4.18;;;2.78;;
32946;SDS011;54465;51.230;22.504;2023-02-27T23:55:31;4.85;;;2.80;;
